createdAt,value
2023-03-07T00:01:54.651Z,30.42
2023-03-07T00:04:56.700Z,29.95
2023-03-07T00:07:59.458Z,30.45
2023-03-07T00:11:03.369Z,26.00
2023-03-07T00:14:08.830Z,25.67
2023-03-07T00:17:10.925Z,24.23
2023-03-07T00:20:15.979Z,24.08
2023-03-07T00:23:17.936Z,22.92
2023-03-07T00:26:22.946Z,23.05
2023-03-07T00:29:25.047Z,24.85
2023-03-07T00:32:27.581Z,22.70
2023-03-07T00:35:29.661Z,27.10
2023-03-07T00:38:32.924Z,25.00
2023-03-07T00:41:35.075Z,25.85
2023-03-07T00:44:37.240Z,24.88
2023-03-07T00:47:39.322Z,26.67
2023-03-07T00:50:41.671Z,25.10
2023-03-07T00:53:44.657Z,26.25
2023-03-07T00:56:46.869Z,25.60
2023-03-07T00:59:49.305Z,23.45
2023-03-07T01:02:52.051Z,24.13
2023-03-07T01:05:55.265Z,25.63
2023-03-07T01:09:00.831Z,23.10
2023-03-07T01:12:07.404Z,27.67
2023-03-07T01:15:10.019Z,30.65
2023-03-07T01:18:13.343Z,30.98
2023-03-07T01:21:21.794Z,32.38
2023-03-07T01:24:24.544Z,33.35
2023-03-07T01:27:27.306Z,35.20
2023-03-07T01:30:29.346Z,39.33
2023-03-07T01:33:31.601Z,38.60
2023-03-07T01:36:35.027Z,37.65
2023-03-07T01:39:40.617Z,39.05
2023-03-07T01:42:45.279Z,39.95
2023-03-07T01:45:56.353Z,41.55
2023-03-07T01:49:01.367Z,38.08
2023-03-07T01:52:25.579Z,39.75
2023-03-07T01:55:34.117Z,39.92
2023-03-07T01:58:46.957Z,39.92
2023-03-07T02:01:50.314Z,37.72
2023-03-07T02:05:13.794Z,38.85
2023-03-07T02:08:17.280Z,38.05
2023-03-07T02:11:21.376Z,37.42
2023-03-07T02:14:23.457Z,37.33
2023-03-07T02:17:28.041Z,34.58
2023-03-07T02:20:36.237Z,37.80
2023-03-07T02:23:46.956Z,35.78
2023-03-07T02:26:51.910Z,36.80
2023-03-07T02:29:56.427Z,30.10
2023-03-07T02:32:58.539Z,31.42
2023-03-07T02:36:08.882Z,31.05
2023-03-07T02:39:14.761Z,33.53
2023-03-07T02:42:40.627Z,33.83
2023-03-07T02:45:47.063Z,32.10
2023-03-07T02:48:49.424Z,32.20
2023-03-07T02:51:57.744Z,32.33
2023-03-07T02:55:00.129Z,29.48
2023-03-07T02:58:07.353Z,33.85
2023-03-07T03:01:10.624Z,33.40
2023-03-07T03:04:12.761Z,31.88
2023-03-07T03:07:16.010Z,35.08
2023-03-07T03:10:18.278Z,33.55
2023-03-07T03:13:20.675Z,32.97
2023-03-07T03:16:22.966Z,31.80
2023-03-07T03:19:25.148Z,30.80
2023-03-07T03:22:27.291Z,31.33
2023-03-07T03:25:29.923Z,30.33
2023-03-07T03:28:32.055Z,29.25
2023-03-07T03:31:35.217Z,21.92
2023-03-07T03:34:39.551Z,21.60
2023-03-07T03:37:42.035Z,23.58
2023-03-07T03:40:44.106Z,21.05
2023-03-07T03:43:46.983Z,20.52
2023-03-07T03:46:49.351Z,21.45
2023-03-07T03:49:53.698Z,22.02
2023-03-07T03:52:57.142Z,23.25
2023-03-07T03:56:14.608Z,23.73
2023-03-07T03:59:17.652Z,28.20
2023-03-07T04:02:20.031Z,30.25
2023-03-07T04:05:22.716Z,31.95
2023-03-07T04:08:24.838Z,31.98
2023-03-07T04:11:27.117Z,31.35
2023-03-07T04:14:29.202Z,33.08
2023-03-07T04:17:31.712Z,34.85
2023-03-07T04:20:35.017Z,37.10
2023-03-07T04:23:37.925Z,36.60
2023-03-07T04:26:40.176Z,38.45
2023-03-07T04:29:42.306Z,38.00
2023-03-07T04:32:56.433Z,37.58
2023-03-07T04:35:58.708Z,35.88
2023-03-07T04:39:00.811Z,37.33
2023-03-07T04:42:02.900Z,38.83
2023-03-07T04:45:11.897Z,38.53
2023-03-07T04:48:14.335Z,41.08
2023-03-07T04:51:17.377Z,37.28
2023-03-07T04:54:19.623Z,40.20
2023-03-07T04:57:23.756Z,40.75
2023-03-07T05:00:26.197Z,38.85
2023-03-07T05:03:28.846Z,42.70
2023-03-07T05:06:33.576Z,37.25
2023-03-07T05:09:35.981Z,38.13
2023-03-07T05:12:38.025Z,40.88
2023-03-07T05:15:41.294Z,41.85
2023-03-07T05:18:43.591Z,38.97
2023-03-07T05:21:47.730Z,38.53
2023-03-07T05:24:50.205Z,37.97
2023-03-07T05:27:52.295Z,38.00
2023-03-07T05:30:57.442Z,38.03
2023-03-07T05:34:03.035Z,37.92
2023-03-07T05:37:05.475Z,36.38
2023-03-07T05:40:11.105Z,34.50
2023-03-07T05:43:16.701Z,35.03
2023-03-07T05:46:20.820Z,33.97
2023-03-07T05:49:25.054Z,31.88
2023-03-07T05:52:28.365Z,35.47
2023-03-07T05:55:30.683Z,38.70
2023-03-07T05:58:33.767Z,38.08
2023-03-07T06:01:36.005Z,31.60
2023-03-07T06:04:38.122Z,27.00
2023-03-07T06:07:40.363Z,23.65
2023-03-07T06:10:43.278Z,25.30
2023-03-07T06:13:47.195Z,30.15
2023-03-07T06:16:49.298Z,27.10
2023-03-07T06:19:51.544Z,27.75
2023-03-07T06:22:54.377Z,26.33
2023-03-07T06:25:56.911Z,26.98
2023-03-07T06:28:59.805Z,27.60
2023-03-07T06:32:02.190Z,28.77
2023-03-07T06:35:04.476Z,25.73
2023-03-07T06:38:07.607Z,24.20
2023-03-07T06:41:10.111Z,22.65
2023-03-07T06:44:12.474Z,17.88
2023-03-07T06:47:14.512Z,15.15
2023-03-07T06:50:23.756Z,14.68
2023-03-07T06:53:32.374Z,14.20
2023-03-07T06:56:35.964Z,13.90
2023-03-07T06:59:38.400Z,14.52
2023-03-07T07:02:40.732Z,13.65
2023-03-07T07:05:42.941Z,13.15
2023-03-07T07:08:45.176Z,13.98
2023-03-07T07:11:47.872Z,13.45
2023-03-07T07:14:50.167Z,13.98
2023-03-07T07:17:53.210Z,12.68
2023-03-07T07:20:57.532Z,13.45
2023-03-07T07:24:01.337Z,11.50
2023-03-07T07:27:03.917Z,13.50
2023-03-07T07:30:07.833Z,11.85
2023-03-07T07:33:11.325Z,16.60
2023-03-07T07:36:13.634Z,12.90
2023-03-07T07:39:17.409Z,11.75
2023-03-07T07:42:20.801Z,11.95
2023-03-07T07:45:38.048Z,12.98
2023-03-07T07:48:42.569Z,11.88
2023-03-07T07:51:45.787Z,10.15
2023-03-07T07:54:47.930Z,11.38
2023-03-07T07:57:51.293Z,10.88
2023-03-07T08:00:54.142Z,14.25
2023-03-07T08:03:56.331Z,10.90
2023-03-07T08:06:58.499Z,11.43
2023-03-07T08:10:00.593Z,9.88
2023-03-07T08:13:03.279Z,10.23
2023-03-07T08:16:22.710Z,6.60
2023-03-07T08:19:24.814Z,10.55
2023-03-07T08:22:27.345Z,10.30
2023-03-07T08:25:30.779Z,8.98
2023-03-07T08:28:33.363Z,9.50
2023-03-07T08:31:35.487Z,9.88
2023-03-07T08:34:37.614Z,9.20
2023-03-07T08:37:40.685Z,8.15
2023-03-07T08:40:42.692Z,6.20
2023-03-07T08:43:44.843Z,10.27
2023-03-07T08:46:46.762Z,8.43
2023-03-07T08:49:48.667Z,8.93
2023-03-07T08:52:51.350Z,12.20
2023-03-07T08:55:53.399Z,9.63
2023-03-07T08:58:55.410Z,10.25
2023-03-07T09:01:57.907Z,9.40
2023-03-07T09:05:00.084Z,8.75
2023-03-07T09:08:02.312Z,7.78
2023-03-07T09:11:05.654Z,9.63
2023-03-07T09:14:07.785Z,7.63
2023-03-07T09:17:10.516Z,7.25
2023-03-07T09:20:14.292Z,5.93
2023-03-07T09:23:16.262Z,5.45
2023-03-07T09:26:18.671Z,5.00
2023-03-07T09:29:20.703Z,4.63
2023-03-07T09:32:22.782Z,5.22
2023-03-07T09:35:25.386Z,6.07
2023-03-07T09:38:27.374Z,7.55
2023-03-07T09:41:32.333Z,6.20
2023-03-07T09:44:51.503Z,5.85
2023-03-07T09:48:31.370Z,4.13
2023-03-07T09:51:40.219Z,8.65
2023-03-07T09:58:16.138Z,3.83
2023-03-07T10:01:23.198Z,3.88
2023-03-07T10:04:34.865Z,4.60
2023-03-07T10:07:37.189Z,4.32
2023-03-07T10:10:47.593Z,3.78
2023-03-07T10:14:24.925Z,2.90
2023-03-07T10:17:40.232Z,2.30
2023-03-07T10:20:42.736Z,3.03
2023-03-07T10:24:02.946Z,3.03
2023-03-07T10:27:10.453Z,2.33
2023-03-07T10:30:18.173Z,2.78
2023-03-07T10:33:21.728Z,2.80
2023-03-07T10:36:46.750Z,3.22
2023-03-07T10:39:54.346Z,3.08
2023-03-07T10:42:58.494Z,6.18
2023-03-07T10:46:24.692Z,7.90
2023-03-07T10:49:37.688Z,7.57
2023-03-07T10:53:01.387Z,7.57
2023-03-07T10:56:16.594Z,4.72
2023-03-07T10:59:25.432Z,5.32
2023-03-07T11:02:30.674Z,7.22
2023-03-07T11:05:36.224Z,7.72
2023-03-07T11:08:38.168Z,8.75
2023-03-07T11:11:40.364Z,6.97
2023-03-07T11:15:00.474Z,7.38
2023-03-07T11:18:02.800Z,7.30
2023-03-07T11:21:05.342Z,7.90
2023-03-07T11:24:30.810Z,5.80
2023-03-07T11:27:38.986Z,7.28
2023-03-07T11:30:52.227Z,8.10
2023-03-07T11:34:17.228Z,6.57
2023-03-07T11:37:52.068Z,8.15
2023-03-07T11:40:56.821Z,7.40
2023-03-07T11:44:36.181Z,7.90
2023-03-07T11:47:45.855Z,7.20
2023-03-07T11:50:54.257Z,7.20
2023-03-07T11:54:07.841Z,6.10
2023-03-07T11:57:18.729Z,7.15
2023-03-07T12:00:26.554Z,6.70
2023-03-07T12:03:54.075Z,7.20
2023-03-07T12:07:20.557Z,7.03
2023-03-07T12:10:31.380Z,6.85
2023-03-07T12:13:45.420Z,7.20
2023-03-07T12:17:19.282Z,6.85
2023-03-07T12:20:31.997Z,6.68
2023-03-07T12:23:41.968Z,6.82
2023-03-07T12:26:56.430Z,7.28
2023-03-07T12:30:05.354Z,7.32
2023-03-07T12:33:21.673Z,7.65
2023-03-07T12:36:32.060Z,6.15
2023-03-07T12:39:42.738Z,5.97
2023-03-07T12:43:09.710Z,5.22
2023-03-07T12:46:31.497Z,5.78
2023-03-07T12:49:49.663Z,5.40
2023-03-07T12:52:57.328Z,5.45
2023-03-07T12:56:18.501Z,6.13
2023-03-07T12:59:21.948Z,5.32
2023-03-07T13:02:30.285Z,5.03
2023-03-07T13:05:37.901Z,5.32
2023-03-07T13:08:40.814Z,5.35
2023-03-07T13:12:20.093Z,4.70
2023-03-07T13:15:26.037Z,5.07
2023-03-07T13:18:31.789Z,5.80
2023-03-07T13:21:34.070Z,5.63
2023-03-07T13:24:39.985Z,5.95
2023-03-07T13:27:41.964Z,5.40
2023-03-07T13:31:16.148Z,5.28
2023-03-07T13:34:48.151Z,4.97
2023-03-07T13:38:00.347Z,4.78
2023-03-07T13:41:05.928Z,5.38
2023-03-07T13:44:30.693Z,5.78
2023-03-07T13:47:43.228Z,4.97
2023-03-07T13:50:45.244Z,5.80
2023-03-07T13:53:51.053Z,5.20
2023-03-07T13:56:55.451Z,5.60
2023-03-07T13:59:57.586Z,5.13
2023-03-07T14:02:59.848Z,5.82
2023-03-07T14:06:09.901Z,5.35
2023-03-07T14:09:18.418Z,5.85
2023-03-07T14:12:44.341Z,5.00
2023-03-07T14:16:15.878Z,5.63
2023-03-07T14:19:38.983Z,4.97
2023-03-07T14:23:02.718Z,5.57
2023-03-07T14:26:35.074Z,4.97
2023-03-07T14:29:37.263Z,5.30
2023-03-07T14:32:41.044Z,4.88
2023-03-07T14:35:44.732Z,5.18
2023-03-07T14:38:48.787Z,5.10
2023-03-07T14:42:18.216Z,4.55
2023-03-07T14:49:12.806Z,5.93
2023-03-07T14:52:29.899Z,5.45
2023-03-07T14:55:54.022Z,5.18
2023-03-07T14:59:00.275Z,5.35
2023-03-07T15:02:02.270Z,6.50
2023-03-07T15:05:04.801Z,5.63
2023-03-07T15:08:22.368Z,6.60
2023-03-07T15:11:51.974Z,5.82
2023-03-07T15:15:02.607Z,6.32
2023-03-07T15:18:14.227Z,5.45
2023-03-07T15:21:20.644Z,6.20
2023-03-07T15:24:33.806Z,8.05
2023-03-07T15:27:35.894Z,5.97
2023-03-07T15:31:25.491Z,6.28
2023-03-07T15:34:30.684Z,7.47
2023-03-07T15:37:33.489Z,7.13
2023-03-07T15:40:40.089Z,7.65
2023-03-07T15:43:42.415Z,7.38
2023-03-07T15:47:14.629Z,8.15
2023-03-07T15:50:24.071Z,9.38
2023-03-07T15:53:36.997Z,7.85
2023-03-07T15:56:41.203Z,9.15
2023-03-07T15:59:58.472Z,7.95
2023-03-07T16:03:29.396Z,7.97
2023-03-07T16:06:44.643Z,6.95
2023-03-07T16:09:46.646Z,7.65
2023-03-07T16:12:49.658Z,9.13
2023-03-07T16:16:12.559Z,7.95
2023-03-07T16:19:14.695Z,8.35
2023-03-07T16:22:19.092Z,11.35
2023-03-07T16:25:24.302Z,10.07
2023-03-07T16:28:28.322Z,12.88
2023-03-07T16:31:30.361Z,18.33
2023-03-07T16:34:33.814Z,19.80
2023-03-07T16:37:38.862Z,22.75
2023-03-07T16:40:48.470Z,23.55
2023-03-07T16:43:55.016Z,20.23
2023-03-07T16:47:13.978Z,19.85
2023-03-07T16:50:18.668Z,15.30
2023-03-07T16:53:20.716Z,12.15
2023-03-07T16:56:28.744Z,12.38
2023-03-07T16:59:39.951Z,12.07
2023-03-07T17:02:42.074Z,12.88
2023-03-07T17:05:45.106Z,11.38
2023-03-07T17:08:47.177Z,14.15
2023-03-07T17:11:51.717Z,13.07
2023-03-07T17:14:57.506Z,14.73
2023-03-07T17:18:01.285Z,15.32
2023-03-07T17:21:03.784Z,15.70
2023-03-07T17:24:06.182Z,14.52
2023-03-07T17:27:08.971Z,16.63
2023-03-07T17:30:17.881Z,16.33
2023-03-07T17:33:19.826Z,17.77
2023-03-07T17:36:22.670Z,15.95
2023-03-07T17:39:25.131Z,18.10
2023-03-07T17:42:29.527Z,23.95
2023-03-07T17:45:31.605Z,24.98
2023-03-07T17:48:35.756Z,20.27
2023-03-07T17:51:38.064Z,18.05
2023-03-07T17:54:41.203Z,17.58
2023-03-07T17:57:48.467Z,18.23
2023-03-07T18:00:50.493Z,18.83
2023-03-07T18:03:52.509Z,18.10
2023-03-07T18:06:54.536Z,18.65
2023-03-07T18:10:07.449Z,19.70
2023-03-07T18:13:15.013Z,19.15
2023-03-07T18:16:19.571Z,19.58
2023-03-07T18:19:27.466Z,20.48
2023-03-07T18:22:29.618Z,22.00
2023-03-07T18:25:32.590Z,24.38
2023-03-07T18:28:36.599Z,26.33
2023-03-07T18:31:41.908Z,27.33
2023-03-07T18:34:44.981Z,29.95
2023-03-07T18:37:47.573Z,33.10
2023-03-07T18:40:51.801Z,34.40
2023-03-07T18:44:05.685Z,36.08
2023-03-07T18:47:08.634Z,40.30
2023-03-07T18:50:12.509Z,36.47
2023-03-07T18:53:17.209Z,35.88
2023-03-07T18:56:19.568Z,39.92
2023-03-07T18:59:21.704Z,39.88
2023-03-07T19:02:23.776Z,39.08
2023-03-07T19:05:25.878Z,43.20
2023-03-07T19:08:28.564Z,40.30
2023-03-07T19:11:31.240Z,45.25
2023-03-07T19:14:33.712Z,42.20
2023-03-07T19:17:39.988Z,43.95
2023-03-07T19:20:42.254Z,42.53
2023-03-07T19:23:44.432Z,42.75
2023-03-07T19:26:46.530Z,42.53
2023-03-07T19:29:48.590Z,46.22
2023-03-07T19:32:50.674Z,44.03
2023-03-07T19:36:09.471Z,43.65
2023-03-07T19:39:20.754Z,44.03
2023-03-07T19:42:23.738Z,43.83
2023-03-07T19:45:27.118Z,43.00
2023-03-07T19:48:29.619Z,42.30
2023-03-07T19:51:31.608Z,43.58
2023-03-07T19:54:33.658Z,41.60
2023-03-07T19:57:36.534Z,41.42
2023-03-07T20:00:43.496Z,39.67
2023-03-07T20:03:46.090Z,39.72
2023-03-07T20:06:48.218Z,40.85
2023-03-07T20:09:53.181Z,39.20
2023-03-07T20:12:55.266Z,39.10
2023-03-07T20:15:57.380Z,40.35
2023-03-07T20:19:01.981Z,37.10
2023-03-07T20:22:05.079Z,39.83
2023-03-07T20:25:07.536Z,35.45
2023-03-07T20:28:09.890Z,36.78
2023-03-07T20:31:13.029Z,37.28
2023-03-07T20:34:15.108Z,37.70
2023-03-07T20:37:17.166Z,35.30
2023-03-07T20:40:19.292Z,34.92
2023-03-07T20:43:21.291Z,36.55
2023-03-07T20:46:23.742Z,37.38
2023-03-07T20:49:26.027Z,36.15
2023-03-07T20:52:28.347Z,35.58
2023-03-07T20:55:31.100Z,37.97
2023-03-07T20:58:33.697Z,36.90
2023-03-07T21:01:36.342Z,35.97
2023-03-07T21:04:38.343Z,34.70
2023-03-07T21:07:40.343Z,32.70
2023-03-07T21:10:42.447Z,30.77
2023-03-07T21:13:46.622Z,33.28
2023-03-07T21:16:49.527Z,32.85
2023-03-07T21:19:51.507Z,33.15
2023-03-07T21:22:57.591Z,32.20
2023-03-07T21:26:12.337Z,32.78
2023-03-07T21:29:14.650Z,29.50
2023-03-07T21:32:17.059Z,28.20
2023-03-07T21:35:19.317Z,24.95
2023-03-07T21:38:23.333Z,26.58
2023-03-07T21:41:25.432Z,27.13
2023-03-07T21:44:27.429Z,25.83
2023-03-07T21:47:29.583Z,27.30
2023-03-07T21:50:32.492Z,22.85
2023-03-07T21:53:35.697Z,23.70
2023-03-07T21:56:37.801Z,22.75
2023-03-07T21:59:40.447Z,22.65
2023-03-07T22:02:43.021Z,21.58
2023-03-07T22:05:45.292Z,22.30
2023-03-07T22:08:48.691Z,21.98
2023-03-07T22:11:50.713Z,22.58
2023-03-07T22:14:52.904Z,21.10
2023-03-07T22:17:55.889Z,20.27
2023-03-07T22:20:57.953Z,18.13
2023-03-07T22:24:01.294Z,18.25
2023-03-07T22:27:03.521Z,15.73
2023-03-07T22:30:07.466Z,16.83
2023-03-07T22:33:09.483Z,16.30
2023-03-07T22:36:13.760Z,16.10
2023-03-07T22:39:15.684Z,13.27
2023-03-07T22:42:17.879Z,11.32
2023-03-07T22:45:19.893Z,11.95
2023-03-07T22:48:22.225Z,10.75
2023-03-07T22:51:25.559Z,12.23
2023-03-07T22:54:28.051Z,9.98
2023-03-07T22:57:31.311Z,11.13
2023-03-07T23:00:33.230Z,11.40
2023-03-07T23:03:35.317Z,11.25
2023-03-07T23:06:38.577Z,21.08
2023-03-07T23:09:40.735Z,19.42
2023-03-07T23:12:43.104Z,19.48
2023-03-07T23:15:45.296Z,21.73
2023-03-07T23:18:51.800Z,20.77
2023-03-07T23:21:53.822Z,23.02
2023-03-07T23:24:55.911Z,20.65
2023-03-07T23:27:57.973Z,22.15
2023-03-07T23:31:00.323Z,23.02
2023-03-07T23:34:05.602Z,23.52
2023-03-07T23:37:07.559Z,24.85
2023-03-07T23:40:12.231Z,23.23
2023-03-07T23:43:14.772Z,24.85
2023-03-07T23:46:16.893Z,23.38
2023-03-07T23:49:18.953Z,23.90
2023-03-07T23:52:21.178Z,24.08
2023-03-07T23:55:23.282Z,22.92
2023-03-07T23:58:25.374Z,23.20
